Time;durP1;ratioP1;P1;durP2;ratioP2;P2;SDS_P1;SDS_P2;PMS_P1;PMS_P2;Temp;Humidity;BMP_temperature;BMP_pressure;BME280_temperature;BME280_humidity;BME280_pressure;Samples;Min_cycle;Max_cycle;Signal;HPM_P1;HPM_P2
2023/01/04 11:37:37;;;;;;;9.45;5.70;;;;;;;7.28;58.06;101225.22;1743818;82;21125;-76
2023/01/04 11:40:21;;;;;;;6.85;4.85;;;;;;;7.25;58.18;101226.17;1741358;81;21600;-77
2023/01/04 11:42:51;;;;;;;6.75;4.35;;;;;;;7.21;58.23;101232.44;1751901;82;21035;-78
2023/01/04 11:45:26;;;;;;;7.40;4.28;;;;;;;7.17;58.23;101239.23;1752116;82;21010;-77
2023/01/04 11:47:56;;;;;;;7.72;4.37;;;;;;;7.10;58.37;101229.14;1751947;82;21103;-78
2023/01/04 11:50:41;;;;;;;7.12;4.70;;;;;;;7.03;58.65;101221.75;1752059;82;21049;-77
2023/01/04 11:53:37;;;;;;;6.53;4.40;;;;;;;6.98;59.17;101226.92;1751913;82;22548;-77
2023/01/04 11:56:15;;;;;;;5.95;3.60;;;;;;;6.94;59.64;101225.70;1732077;82;21074;-77
2023/01/04 11:58:43;;;;;;;5.60;3.70;;;;;;;6.89;59.80;101222.38;1737232;82;21035;-79
2023/01/04 12:01:22;;;;;;;6.33;3.75;;;;;;;6.88;59.91;101221.25;1752370;81;21536;-77
2023/01/04 12:03:51;;;;;;;8.10;4.95;;;;;;;6.90;59.97;101228.50;1751661;81;20971;-76
2023/01/04 12:06:34;;;;;;;6.15;3.95;;;;;;;6.92;60.04;101223.80;1752198;82;21110;-77
2023/01/04 12:09:00;;;;;;;7.28;4.30;;;;;;;6.96;59.92;101227.64;1751936;82;21466;-76
2023/01/04 12:11:30;;;;;;;6.85;3.27;;;;;;;6.95;59.82;101224.69;1752484;82;21074;-78
2023/01/04 12:13:58;;;;;;;6.22;3.60;;;;;;;6.95;59.73;101220.70;1752019;82;21188;-77
2023/01/04 12:16:54;;;;;;;5.90;3.75;;;;;;;6.93;59.59;101225.41;1752091;82;21094;-77
2023/01/04 12:19:22;;;;;;;5.85;3.42;;;;;;;6.94;59.47;101232.34;1751912;82;21251;-77
2023/01/04 12:21:51;;;;;;;6.03;3.52;;;;;;;6.92;59.25;101219.81;1751880;82;21526;-76
2023/01/04 12:24:32;;;;;;;5.35;3.20;;;;;;;6.91;59.20;101220.82;1725696;83;21064;-77
2023/01/04 12:27:04;;;;;;;6.28;3.62;;;;;;;6.91;59.26;101223.47;1725551;83;21004;-76
2023/01/04 12:29:42;;;;;;;5.58;3.47;;;;;;;6.94;59.25;101224.38;1724921;82;21076;-78
2023/01/04 12:32:16;;;;;;;6.42;3.40;;;;;;;6.99;59.16;101220.56;1725782;82;21047;-77
2023/01/04 12:34:45;;;;;;;6.08;3.50;;;;;;;7.02;59.02;101226.77;1752365;82;21043;-76
2023/01/04 12:37:45;;;;;;;6.25;3.58;;;;;;;7.01;58.98;101220.66;1749339;82;21425;-77
2023/01/04 12:40:45;;;;;;;5.67;3.37;;;;;;;7.04;58.97;101220.71;1706331;83;21456;-76
2023/01/04 12:43:24;;;;;;;5.67;3.17;;;;;;;6.99;58.88;101220.05;1689562;83;20991;-77
2023/01/04 12:49:33;;;;;;;4.67;2.97;;;;;;;7.00;58.80;101223.52;1732519;82;20976;-77
2023/01/04 12:52:12;;;;;;;5.45;3.17;;;;;;;7.02;58.58;101221.47;1725838;83;21164;-76
2023/01/04 12:54:51;;;;;;;6.53;3.35;;;;;;;7.01;58.52;101218.52;1752469;82;21015;-77
2023/01/04 12:57:24;;;;;;;5.70;3.25;;;;;;;7.02;58.47;101224.12;1725539;83;21051;-77
2023/01/04 13:00:11;;;;;;;5.33;3.22;;;;;;;7.00;58.47;101219.53;1752136;82;21142;-77
2023/01/04 13:02:46;;;;;;;5.97;3.67;;;;;;;7.00;58.53;101218.20;1725400;83;20932;-76
2023/01/04 13:05:23;;;;;;;6.22;3.75;;;;;;;6.98;58.59;101222.41;1752262;82;21153;-77
2023/01/04 13:07:55;;;;;;;7.17;4.20;;;;;;;6.96;58.61;101219.67;1751913;81;21121;-77
2023/01/04 13:10:50;;;;;;;5.35;3.60;;;;;;;6.97;58.61;101214.13;1752218;82;20967;-77
2023/01/04 13:13:50;;;;;;;5.75;3.55;;;;;;;6.99;58.55;101221.89;1752091;82;21138;-76
2023/01/04 13:16:31;;;;;;;6.03;3.50;;;;;;;6.94;58.55;101221.72;1722388;82;20979;-77
2023/01/04 13:19:00;;;;;;;5.70;3.45;;;;;;;6.95;58.64;101222.84;1752639;81;21591;-76
2023/01/04 13:21:39;;;;;;;6.62;3.50;;;;;;;6.96;58.52;101223.66;1753753;82;21540;-77
2023/01/04 13:24:32;;;;;;;5.35;3.30;;;;;;;6.94;58.44;101219.91;1754996;82;20971;-77
2023/01/04 13:27:10;;;;;;;4.90;2.83;;;;;;;6.95;58.36;101223.36;1754865;82;21583;-76
2023/01/04 13:29:36;;;;;;;6.95;3.70;;;;;;;6.97;58.21;101219.95;1746741;81;21558;-76
2023/01/04 13:32:25;;;;;;;7.45;3.83;;;;;;;6.97;58.10;101226.08;1739586;82;21001;-77
2023/01/04 13:35:04;;;;;;;5.22;3.60;;;;;;;6.97;58.03;101237.22;1734340;82;21009;-77
2023/01/04 13:37:36;;;;;;;5.87;3.75;;;;;;;6.96;58.05;101232.95;1709534;82;21108;-76
2023/01/04 13:40:23;;;;;;;;;;;;;;;6.92;58.29;101237.88;1725181;83;21285;-77
2023/01/04 13:43:21;;;;;;;7.10;3.77;;;;;;;6.87;58.52;101242.20;1694877;84;20189;-77
2023/01/04 13:46:16;;;;;;;7.78;4.10;;;;;;;6.79;58.81;101241.44;1695076;84;21059;-76
2023/01/04 13:48:46;;;;;;;6.35;3.52;;;;;;;6.71;59.14;101238.22;1694854;84;21177;-77
2023/01/04 13:51:23;;;;;;;5.67;3.58;;;;;;;6.60;59.47;101231.77;1694932;84;21115;-76
2023/01/04 13:53:58;;;;;;;6.40;3.80;;;;;;;6.53;59.81;101237.63;1694901;84;21205;-77
2023/01/04 13:56:27;;;;;;;7.35;4.42;;;;;;;6.45;60.01;101234.73;1694784;83;21537;-77
2023/01/04 13:58:54;;;;;;;6.50;4.10;;;;;;;6.37;60.33;101231.49;1722944;83;21059;-77
2023/01/04 14:01:32;;;;;;;6.78;4.37;;;;;;;6.27;60.49;101229.30;1723835;82;21008;-76
2023/01/04 14:04:05;;;;;;;10.15;4.53;;;;;;;6.22;60.63;101234.41;1707249;83;21537;-77
2023/01/04 14:06:44;;;;;;;5.85;4.10;;;;;;;6.19;60.72;101230.88;1723761;83;21754;-76
2023/01/04 14:09:17;;;;;;;8.10;4.35;;;;;;;6.16;60.74;101229.45;1723644;82;21494;-76
2023/01/04 14:12:00;;;;;;;6.50;3.62;;;;;;;6.09;60.73;101226.84;1723902;82;21059;-76
2023/01/04 14:14:51;;;;;;;5.42;3.30;;;;;;;6.03;60.71;101229.52;1723772;83;21060;-76
2023/01/04 14:17:37;;;;;;;5.60;3.42;;;;;;;5.92;60.75;101219.52;1723818;82;21555;-77
2023/01/04 14:20:07;;;;;;;6.37;3.95;;;;;;;5.83;60.84;101223.73;1717988;82;21773;-77
2023/01/04 14:22:39;;;;;;;5.65;3.55;;;;;;;5.78;60.85;101225.38;1723576;83;21029;-77
2023/01/04 14:25:39;;;;;;;7.15;3.65;;;;;;;5.70;60.86;101226.42;1723403;82;20953;-76
2023/01/04 14:28:28;;;;;;;4.97;3.15;;;;;;;5.64;60.83;101229.39;1722501;82;20998;-76
2023/01/04 14:31:09;;;;;;;6.08;3.58;;;;;;;5.59;60.74;101224.39;1723898;82;21047;-76
2023/01/04 14:33:47;;;;;;;5.50;3.80;;;;;;;5.54;60.63;101228.20;1723537;83;21259;-76
2023/01/04 14:36:20;;;;;;;5.50;3.70;;;;;;;5.47;60.60;101237.48;1723809;82;21080;-77
2023/01/04 14:39:09;;;;;;;6.00;3.62;;;;;;;5.41;60.61;101227.19;1723893;83;21060;-77
2023/01/04 14:41:53;;;;;;;5.95;3.42;;;;;;;5.37;60.61;101223.33;1723826;83;21119;-77
2023/01/04 14:44:24;;;;;;;6.40;3.77;;;;;;;5.31;60.56;101225.47;1724007;83;20976;-77
2023/01/04 14:46:56;;;;;;;6.45;3.55;;;;;;;5.27;60.57;101216.83;1723835;82;22198;-77
2023/01/04 14:49:27;;;;;;;5.92;3.40;;;;;;;5.22;60.58;101223.23;1724086;82;21510;-77
2023/01/04 14:51:59;;;;;;;7.40;4.33;;;;;;;5.20;60.55;101220.81;1723683;83;21031;-76
2023/01/04 14:54:28;;;;;;;5.55;3.37;;;;;;;5.17;60.57;101219.38;1752615;81;21082;-75
2023/01/04 14:56:56;;;;;;;8.80;5.80;;;;;;;5.14;60.59;101220.30;1753015;82;21034;-78
2023/01/04 14:59:22;;;;;;;10.80;7.37;;;;;;;5.10;60.55;101225.19;1726005;83;21142;-76
2023/01/04 15:01:51;;;;;;;14.50;8.73;;;;;;;5.06;60.53;101220.48;1752124;82;21015;-76
2023/01/04 15:04:18;;;;;;;12.88;9.95;;;;;;;4.99;60.55;101221.81;1752186;82;21070;-78
2023/01/04 15:06:49;;;;;;;14.68;8.80;;;;;;;4.94;60.49;101222.44;1726292;83;21110;-78
2023/01/04 15:09:16;;;;;;;11.85;8.48;;;;;;;4.90;60.38;101220.37;1752056;82;20998;-76
2023/01/04 15:11:43;;;;;;;11.08;7.83;;;;;;;4.82;60.39;101209.49;1752023;82;21513;-77
2023/01/04 15:14:12;;;;;;;9.30;6.37;;;;;;;4.78;60.37;101209.59;1725424;83;21518;-77
2023/01/04 15:16:39;;;;;;;10.48;6.55;;;;;;;4.72;60.48;101209.08;1752157;82;21062;-77
2023/01/04 15:19:06;;;;;;;8.28;6.03;;;;;;;4.69;60.58;101206.84;1752371;81;21066;-78
2023/01/04 15:21:33;;;;;;;8.53;6.00;;;;;;;4.66;60.59;101211.20;1725586;83;21103;-77
2023/01/04 15:24:00;;;;;;;10.28;5.78;;;;;;;4.61;60.59;101208.36;1752065;82;21120;-77
2023/01/04 15:26:27;;;;;;;8.48;5.60;;;;;;;4.56;60.63;101197.55;1748626;82;21511;-77
2023/01/04 15:28:53;;;;;;;8.08;4.58;;;;;;;4.49;60.67;101199.37;1733998;82;21092;-77
2023/01/04 15:31:20;;;;;;;7.67;4.72;;;;;;;4.36;60.92;101203.62;1733985;82;21006;-77
2023/01/04 15:33:47;;;;;;;9.78;5.65;;;;;;;4.23;61.30;101203.58;1733814;82;21115;-77
2023/01/04 15:36:17;;;;;;;14.43;7.65;;;;;;;4.20;61.38;101198.18;1733966;82;21244;-77
2023/01/04 15:38:44;;;;;;;11.65;6.85;;;;;;;4.17;61.47;101200.41;1742457;82;22309;-78
2023/01/04 15:42:57;;;;;;;13.85;7.62;;;;;;;4.14;61.51;101190.23;1725711;83;20980;-76
2023/01/04 15:43:43;;;;;;;10.40;6.70;;;;;;;4.09;61.51;101190.83;1746869;82;21462;-77
2023/01/04 15:46:09;;;;;;;11.75;7.87;;;;;;;4.06;61.55;101185.94;1752169;82;20975;-77
2023/01/04 15:48:36;;;;;;;14.68;8.03;;;;;;;4.05;61.62;101187.45;1725498;83;21116;-77
2023/01/04 15:51:06;;;;;;;14.73;8.23;;;;;;;4.03;61.74;101184.20;1752178;82;21137;-77
2023/01/04 16:07:26;;;;;;;19.50;12.23;;;;;;;4.44;61.71;101174.35;1871015;76;22220;-70
2023/01/04 16:09:53;;;;;;;15.25;11.20;;;;;;;4.34;61.54;101174.41;1827140;78;20936;-71
2023/01/04 16:15:08;;;;;;;15.98;10.28;;;;;;;4.15;61.48;101170.73;1817364;78;20963;-71
2023/01/04 16:17:35;;;;;;;17.50;11.48;;;;;;;4.10;61.40;101171.81;1826754;78;20912;-71
2023/01/04 16:20:04;;;;;;;16.05;10.82;;;;;;;4.02;61.47;101170.17;1826877;78;20954;-71
2023/01/04 16:22:31;;;;;;;19.37;12.70;;;;;;;3.94;61.64;101167.18;1827151;78;20912;-71
2023/01/04 16:24:57;;;;;;;17.60;12.47;;;;;;;3.87;61.66;101168.18;1827368;78;21729;-71
2023/01/04 16:27:24;;;;;;;17.92;11.15;;;;;;;3.83;61.76;101168.27;1826920;78;20912;-71
2023/01/04 16:29:51;;;;;;;12.80;9.13;;;;;;;3.77;61.80;101159.30;1811620;78;20979;-71
2023/01/04 16:32:19;;;;;;;12.90;8.75;;;;;;;3.72;61.68;101156.45;1794457;80;21039;-69
2023/01/04 16:34:48;;;;;;;15.38;8.53;;;;;;;3.64;61.55;101153.45;1794650;80;20944;-71
2023/01/04 16:37:15;;;;;;;15.53;8.73;;;;;;;3.58;61.41;101149.45;1800710;79;21707;-70
2023/01/04 16:39:42;;;;;;;12.15;7.62;;;;;;;3.47;61.35;101143.72;1794679;80;20983;-70
2023/01/04 16:42:09;;;;;;;10.98;7.78;;;;;;;3.38;61.29;101141.43;1794245;80;21039;-71
2023/01/04 16:44:38;;;;;;;12.60;8.00;;;;;;;3.29;61.31;101140.77;1794663;80;20979;-70
2023/01/04 16:47:05;;;;;;;16.05;9.55;;;;;;;3.19;61.39;101138.50;1795451;78;21553;-71
2023/01/04 16:49:31;;;;;;;16.17;9.60;;;;;;;3.12;61.45;101136.81;1794915;78;21037;-71
2023/01/04 16:51:58;;;;;;;14.28;9.73;;;;;;;3.06;61.50;101138.41;1821892;78;21062;-71
2023/01/04 16:54:24;;;;;;;13.88;9.03;;;;;;;2.98;61.57;101128.80;1827353;78;20944;-71
2023/01/04 16:56:53;;;;;;;26.25;16.07;;;;;;;2.91;61.61;101127.95;1826842;78;20980;-71
2023/01/04 16:59:21;;;;;;;35.98;19.92;;;;;;;2.85;61.73;101128.71;1827218;78;21023;-71
2023/01/04 17:01:51;;;;;;;30.23;16.90;;;;;;;2.80;61.87;101116.11;1826835;78;21148;-71
2023/01/04 17:04:19;;;;;;;25.02;14.87;;;;;;;2.76;62.01;101117.98;1805859;78;20981;-71
2023/01/04 17:06:46;;;;;;;18.75;11.78;;;;;;;2.71;62.13;101114.61;1787601;80;20967;-71
2023/01/04 17:09:16;;;;;;;19.50;12.03;;;;;;;2.67;62.23;101115.20;1783746;80;20960;-72
2023/01/04 17:11:55;;;;;;;18.40;11.28;;;;;;;2.63;62.32;101116.56;1783204;80;21011;-71
2023/01/04 17:14:15;;;;;;;19.17;10.80;;;;;;;2.57;62.38;101115.02;1783152;79;21145;-71
2023/01/04 17:16:42;;;;;;;14.07;9.13;;;;;;;2.49;62.44;101107.22;1783206;80;20936;-72
2023/01/04 17:19:09;;;;;;;13.78;8.73;;;;;;;2.43;62.54;101106.66;1783050;80;20988;-71
2023/01/04 17:21:37;;;;;;;12.58;7.62;;;;;;;2.33;62.70;101095.11;1783775;79;20971;-71
2023/01/04 17:24:05;;;;;;;14.93;8.30;;;;;;;2.26;62.89;101100.84;1783125;80;21054;-71
2023/01/04 17:26:32;;;;;;;11.73;7.62;;;;;;;2.21;62.96;101101.11;1782703;80;21542;-72
2023/01/04 17:29:00;;;;;;;11.53;7.42;;;;;;;2.14;63.02;101090.98;1783020;80;20988;-70
2023/01/04 17:31:31;;;;;;;10.50;7.65;;;;;;;2.11;63.15;101096.14;1782839;80;20952;-71
2023/01/04 17:33:57;;;;;;;12.20;7.33;;;;;;;2.10;63.26;101092.67;1783008;80;21003;-70
2023/01/04 17:36:24;;;;;;;11.00;7.15;;;;;;;2.08;63.37;101093.38;1782846;80;21502;-71
2023/01/04 17:38:51;;;;;;;10.85;7.10;;;;;;;2.08;63.43;101080.70;1784111;79;21160;-71
2023/01/04 17:41:22;;;;;;;10.80;6.72;;;;;;;2.03;63.46;101077.81;1782698;80;20991;-71
2023/01/04 17:43:56;;;;;;;14.95;9.58;;;;;;;2.01;63.55;101078.52;1782131;79;20987;-72
2023/01/04 17:46:23;;;;;;;12.35;8.03;;;;;;;2.00;63.62;101075.04;1783006;80;21039;-71
2023/01/04 17:48:51;;;;;;;12.53;8.30;;;;;;;2.00;63.70;101076.86;1798196;79;20948;-71
2023/01/04 17:51:20;;;;;;;18.25;11.80;;;;;;;1.97;63.74;101076.73;1814728;79;21104;-71
2023/01/04 17:53:50;;;;;;;13.32;9.55;;;;;;;1.95;63.81;101064.27;1814144;78;21458;-71
2023/01/04 17:56:17;;;;;;;20.17;13.35;;;;;;;1.94;63.86;101069.70;1745503;81;20987;-71
2023/01/04 17:58:45;;;;;;;16.50;12.55;;;;;;;1.93;63.89;101070.21;1745624;82;21074;-71
2023/01/04 18:01:17;;;;;;;16.40;11.48;;;;;;;1.90;63.93;101071.90;1745330;82;21018;-71
2023/01/04 18:03:46;;;;;;;15.58;10.72;;;;;;;1.88;64.00;101068.66;1745655;82;21111;-71
2023/01/04 18:06:13;;;;;;;16.80;11.25;;;;;;;1.86;64.00;101065.38;1745197;82;21038;-71
2023/01/04 18:08:40;;;;;;;16.85;11.25;;;;;;;1.83;64.04;101067.07;1745953;82;21015;-71
2023/01/04 18:11:07;;;;;;;17.10;11.30;;;;;;;1.81;64.08;101061.16;1744305;81;21038;-73
2023/01/04 18:13:35;;;;;;;19.27;11.95;;;;;;;1.77;64.11;101063.86;1745639;82;21120;-72
2023/01/04 18:16:05;;;;;;;16.93;11.85;;;;;;;1.73;64.12;101054.71;1745295;82;21043;-71
2023/01/04 18:18:32;;;;;;;18.05;11.45;;;;;;;1.61;64.20;101056.52;1745577;82;21055;-72
2023/01/04 18:21:15;;;;;;;21.90;14.60;;;;;;;1.53;64.30;101052.67;1745336;82;21015;-72
2023/01/04 18:23:42;;;;;;;21.48;13.78;;;;;;;1.50;64.41;101050.41;1745621;82;20967;-73
2023/01/04 18:26:09;;;;;;;22.32;13.98;;;;;;;1.52;64.52;101048.41;1745368;82;20963;-73
2023/01/04 18:28:36;;;;;;;21.48;14.53;;;;;;;1.56;64.56;101047.55;1744485;82;21211;-72
2023/01/04 18:31:16;;;;;;;23.25;14.23;;;;;;;1.58;64.63;101043.73;1745295;82;21014;-72
2023/01/04 18:33:42;;;;;;;22.90;15.30;;;;;;;1.56;64.58;101043.59;1745677;82;20975;-72
2023/01/04 18:36:10;;;;;;;22.58;15.75;;;;;;;1.47;64.63;101041.56;1745429;82;21212;-71
2023/01/04 18:38:37;;;;;;;24.60;16.57;;;;;;;1.37;64.78;101034.45;1743319;80;21110;-72
2023/01/04 18:41:07;;;;;;;23.47;16.05;;;;;;;1.31;64.92;101028.11;1745431;81;22133;-72
2023/01/04 18:43:34;;;;;;;23.55;15.75;;;;;;;1.28;65.05;101023.72;1765187;80;21530;-71
2023/01/04 18:46:08;;;;;;;22.10;14.83;;;;;;;1.27;65.19;101018.14;1748449;80;21055;-71
2023/01/04 18:48:35;;;;;;;24.63;15.78;;;;;;;1.19;65.27;101022.21;1751517;81;21529;-71
2023/01/04 18:51:05;;;;;;;22.70;15.03;;;;;;;1.13;65.46;101019.30;1744499;81;21086;-72
2023/01/04 18:53:31;;;;;;;24.90;15.32;;;;;;;1.12;65.65;101021.62;1734649;82;21107;-72
2023/01/04 18:55:58;;;;;;;28.73;16.55;;;;;;;1.16;65.79;101022.88;1734485;82;21008;-72
2023/01/04 18:58:24;;;;;;;23.60;15.23;;;;;;;1.20;65.86;101018.57;1734922;82;20969;-72
2023/01/04 19:01:06;;;;;;;24.50;15.98;;;;;;;1.22;65.91;101019.19;1734640;81;21448;-72
2023/01/04 19:03:37;;;;;;;25.48;16.35;;;;;;;1.25;65.98;101017.50;1737057;81;21056;-72
2023/01/04 19:06:17;;;;;;;25.82;16.73;;;;;;;1.31;65.97;101014.14;1765315;81;21069;-72
2023/01/04 19:08:44;;;;;;;27.45;17.80;;;;;;;1.34;66.02;101005.37;1764712;81;21007;-71
2023/01/04 19:11:11;;;;;;;26.68;17.75;;;;;;;1.43;65.97;101003.45;1765039;80;21550;-72
2023/01/04 19:13:38;;;;;;;27.10;17.90;;;;;;;1.49;65.97;100997.95;1764913;81;21031;-71
2023/01/04 19:16:08;;;;;;;28.67;17.95;;;;;;;1.53;65.90;101000.52;1765018;80;20953;-72
2023/01/04 19:18:35;;;;;;;26.82;17.27;;;;;;;1.58;65.95;101001.60;1765205;81;21113;-72
2023/01/04 19:21:02;;;;;;;25.97;16.95;;;;;;;1.63;66.00;100998.40;1763887;81;21091;-72
2023/01/04 19:23:29;;;;;;;25.60;16.45;;;;;;;1.66;66.05;100988.00;1765099;81;21610;-72
2023/01/04 19:25:57;;;;;;;22.52;15.68;;;;;;;1.69;66.08;100990.26;1764891;80;21594;-72
2023/01/04 19:28:24;;;;;;;25.32;15.88;;;;;;;1.72;66.14;100993.84;1764988;80;20996;-72
2023/01/04 19:30:50;;;;;;;24.25;15.28;;;;;;;1.76;66.27;100999.03;1765317;80;21233;-72
2023/01/04 19:33:16;;;;;;;22.90;15.60;;;;;;;1.82;66.44;100990.38;1764932;81;21006;-72
2023/01/04 19:35:45;;;;;;;20.50;13.32;;;;;;;1.92;66.56;100995.34;1764437;81;21034;-73
2023/01/04 19:38:12;;;;;;;19.45;13.18;;;;;;;2.00;66.64;100984.66;1734459;82;21047;-73
2023/01/04 19:40:39;;;;;;;17.80;11.93;;;;;;;2.08;66.76;100985.34;1735001;82;21123;-73
2023/01/04 19:43:06;;;;;;;20.37;12.20;;;;;;;2.14;66.80;100986.89;1734521;82;21335;-72
2023/01/04 19:45:38;;;;;;;18.73;12.03;;;;;;;2.19;66.83;100991.91;1737834;81;20984;-72
2023/01/04 19:48:05;;;;;;;17.50;11.33;;;;;;;2.23;66.84;100983.11;1752629;81;21058;-72
2023/01/04 19:50:32;;;;;;;16.93;10.93;;;;;;;2.27;66.87;100982.56;1748040;81;21059;-72
2023/01/04 19:52:59;;;;;;;17.42;10.90;;;;;;;2.34;66.90;100986.56;1737802;81;21059;-71
2023/01/04 19:55:31;;;;;;;16.93;10.43;;;;;;;2.41;66.85;100978.70;1765495;81;21199;-71
2023/01/04 19:57:59;;;;;;;16.35;9.98;;;;;;;2.46;66.75;100969.69;1764932;81;20969;-71
2023/01/04 20:00:25;;;;;;;18.45;10.32;;;;;;;2.51;66.63;100972.06;1765183;81;20957;-71
2023/01/04 20:02:52;;;;;;;15.68;9.83;;;;;;;2.55;66.53;100971.17;1764906;81;21115;-71
2023/01/04 20:05:18;;;;;;;14.05;9.45;;;;;;;2.62;66.44;100963.30;1765000;80;21139;-71
2023/01/04 20:07:47;;;;;;;17.10;9.20;;;;;;;2.68;66.35;100955.42;1764948;81;21202;-70
2023/01/04 20:10:14;;;;;;;15.43;9.00;;;;;;;2.73;66.19;100958.78;1764124;81;21001;-72
2023/01/04 20:12:42;;;;;;;13.95;9.08;;;;;;;2.75;66.07;100955.45;1764922;81;20992;-74
2023/01/04 20:15:12;;;;;;;13.43;8.60;;;;;;;2.81;65.92;100952.04;1764968;80;21044;-71
2023/01/04 20:17:39;;;;;;;13.93;8.88;;;;;;;2.86;65.74;100952.25;1764960;81;21039;-71
2023/01/04 20:20:05;;;;;;;13.00;8.90;;;;;;;2.89;65.61;100953.17;1765300;81;21101;-72
2023/01/04 20:22:33;;;;;;;13.72;8.88;;;;;;;2.90;65.41;100948.23;1764862;81;21519;-71
2023/01/04 20:24:59;;;;;;;13.43;8.63;;;;;;;2.93;65.32;100951.80;1765301;80;21016;-72
2023/01/04 20:27:26;;;;;;;13.85;8.90;;;;;;;2.96;65.20;100943.49;1763816;81;21047;-71
2023/01/04 20:29:52;;;;;;;14.93;8.75;;;;;;;2.99;65.06;100929.06;1764993;81;21063;-71
2023/01/04 20:32:19;;;;;;;13.80;8.75;;;;;;;3.03;64.94;100935.09;1764986;81;21120;-71
2023/01/04 20:34:46;;;;;;;13.53;8.33;;;;;;;3.06;64.80;100927.29;1764844;80;21016;-72
2023/01/04 20:37:13;;;;;;;14.25;8.58;;;;;;;3.10;64.71;100917.14;1765114;81;21699;-71
2023/01/04 20:39:40;;;;;;;12.30;7.92;;;;;;;3.12;64.59;100922.51;1765072;80;21590;-71
2023/01/04 20:44:51;;;;;;;12.18;7.55;;;;;;;3.13;64.32;100906.19;1750209;81;21885;-71
2023/01/04 20:47:18;;;;;;;11.12;7.80;;;;;;;3.18;64.23;100907.71;1734554;82;21024;-72
2023/01/04 20:49:47;;;;;;;14.20;7.72;;;;;;;3.19;64.11;100887.73;1734745;82;21467;-72
2023/01/04 20:52:15;;;;;;;12.65;7.87;;;;;;;3.22;64.00;100896.54;1734700;81;20984;-70
2023/01/04 20:54:42;;;;;;;12.35;7.45;;;;;;;3.23;63.88;100889.46;1734702;82;20996;-71
2023/01/04 20:57:09;;;;;;;10.35;6.40;;;;;;;3.24;63.79;100887.12;1734680;82;21164;-70
2023/01/04 20:59:35;;;;;;;10.98;6.78;;;;;;;3.24;63.76;100872.60;1734603;82;20960;-70
2023/01/04 21:02:02;;;;;;;11.33;6.83;;;;;;;3.25;63.76;100875.53;1750918;81;21008;-71
2023/01/04 21:04:30;;;;;;;11.33;6.80;;;;;;;3.26;63.64;100873.23;1764914;81;21013;-71
2023/01/04 21:06:57;;;;;;;13.28;7.03;;;;;;;3.24;63.64;100866.81;1765017;81;21190;-72
2023/01/04 21:09:24;;;;;;;9.95;6.70;;;;;;;3.24;63.67;100863.36;1765118;80;21547;-71
2023/01/04 21:11:50;;;;;;;12.88;7.47;;;;;;;3.27;63.69;100866.41;1765032;81;21478;-71
2023/01/04 21:14:17;;;;;;;11.20;7.37;;;;;;;3.31;63.66;100869.45;1764976;81;20984;-72
2023/01/04 21:16:44;;;;;;;12.78;7.83;;;;;;;3.35;63.53;100866.72;1765108;81;21005;-71
2023/01/04 21:19:10;;;;;;;11.12;7.45;;;;;;;3.36;63.51;100861.77;1747025;81;21059;-70
2023/01/04 21:21:37;;;;;;;12.30;7.55;;;;;;;3.40;63.51;100858.20;1734959;81;21996;-70
2023/01/04 21:24:05;;;;;;;14.38;8.93;;;;;;;3.43;63.48;100848.56;1734505;82;21013;-70
2023/01/04 21:26:32;;;;;;;13.15;8.15;;;;;;;3.45;63.38;100839.40;1734844;81;21571;-71
2023/01/04 21:28:59;;;;;;;14.47;8.83;;;;;;;3.46;63.32;100833.13;1734572;82;20956;-71
2023/01/04 21:31:25;;;;;;;14.73;8.48;;;;;;;3.47;63.22;100832.09;1734921;82;21004;-71
2023/01/04 21:33:52;;;;;;;12.60;8.33;;;;;;;3.48;63.20;100828.44;1734529;82;21229;-72
2023/01/04 21:36:23;;;;;;;14.70;9.18;;;;;;;3.51;63.15;100823.26;1735384;81;21039;-72
2023/01/04 21:38:51;;;;;;;12.80;8.60;;;;;;;3.51;63.08;100818.78;1744751;80;21818;-70
2023/01/04 21:41:23;;;;;;;14.35;9.30;;;;;;;3.52;63.03;100809.87;1747750;80;21229;-71
2023/01/04 21:43:47;;;;;;;14.70;9.13;;;;;;;3.53;62.96;100801.43;1743877;79;21135;-71
2023/01/04 21:46:16;;;;;;;13.78;8.83;;;;;;;3.55;62.90;100807.81;1759783;81;20976;-71
2023/01/04 21:48:45;;;;;;;15.18;9.35;;;;;;;3.56;62.92;100807.63;1753361;80;21480;-71
2023/01/04 21:51:12;;;;;;;12.60;8.40;;;;;;;3.58;62.88;100795.52;1727433;81;21454;-71
2023/01/04 21:53:39;;;;;;;11.68;8.18;;;;;;;3.58;62.84;100787.09;1733302;81;21086;-72
2023/01/04 21:56:10;;;;;;;14.13;8.85;;;;;;;3.56;62.74;100778.58;1734875;81;21041;-72
2023/01/04 21:58:37;;;;;;;11.18;8.08;;;;;;;3.55;62.68;100774.80;1734566;82;21652;-71
2023/01/04 22:01:17;;;;;;;12.55;7.97;;;;;;;3.53;62.66;100775.02;1734771;82;21464;-71
2023/01/04 22:03:44;;;;;;;11.93;7.53;;;;;;;3.51;62.62;100771.25;1733921;81;21016;-72
2023/01/04 22:06:12;;;;;;;10.93;7.50;;;;;;;3.49;62.61;100765.89;1734718;82;21083;-71
2023/01/04 22:08:42;;;;;;;11.88;7.78;;;;;;;3.45;62.63;100758.86;1734629;81;21016;-73
2023/01/04 22:11:09;;;;;;;11.63;7.40;;;;;;;3.41;62.66;100756.84;1765085;81;21380;-71
2023/01/04 22:13:38;;;;;;;12.45;8.13;;;;;;;3.39;62.72;100758.87;1764757;80;21047;-71
2023/01/04 22:16:07;;;;;;;11.40;7.10;;;;;;;3.37;62.75;100756.95;1765046;81;20988;-71
2023/01/04 22:18:36;;;;;;;9.48;6.70;;;;;;;3.36;62.82;100748.74;1764879;81;21016;-72
2023/01/04 22:21:12;;;;;;;9.18;6.45;;;;;;;3.33;62.90;100740.72;1765512;81;21020;-71
2023/01/04 22:23:39;;;;;;;9.70;6.62;;;;;;;3.34;63.00;100734.41;1764898;81;21442;-71
2023/01/04 22:26:06;;;;;;;10.48;6.40;;;;;;;3.35;63.03;100722.83;1760420;80;20996;-73
2023/01/04 22:28:34;;;;;;;11.35;6.50;;;;;;;3.37;63.06;100715.52;1734507;82;21016;-72
2023/01/04 22:31:05;;;;;;;8.75;5.92;;;;;;;3.41;63.05;100715.92;1734803;82;21074;-72
2023/01/04 22:33:36;;;;;;;9.50;6.58;;;;;;;3.43;63.08;100709.94;1734897;82;21004;-71
2023/01/04 22:36:12;;;;;;;8.78;5.97;;;;;;;3.46;63.10;100702.92;1734719;81;21067;-72
2023/01/04 22:38:40;;;;;;;9.63;6.35;;;;;;;3.49;63.02;100692.76;1734475;81;21087;-71
2023/01/04 22:41:09;;;;;;;8.95;5.67;;;;;;;3.47;62.94;100682.90;1739267;81;20973;-70
2023/01/04 22:43:37;;;;;;;8.50;5.58;;;;;;;3.48;62.90;100675.27;1735612;81;21174;-71
2023/01/04 22:46:06;;;;;;;8.05;5.83;;;;;;;3.48;62.83;100679.75;1734811;82;21514;-72
2023/01/04 22:48:34;;;;;;;8.63;5.80;;;;;;;3.48;62.78;100669.19;1734497;82;21479;-72
2023/01/04 22:51:07;;;;;;;9.55;5.80;;;;;;;3.47;62.73;100661.77;1748920;81;21039;-72
2023/01/04 22:53:34;;;;;;;11.22;6.00;;;;;;;3.44;62.70;100654.78;1764906;80;21648;-71
2023/01/04 22:56:06;;;;;;;8.98;6.08;;;;;;;3.42;62.69;100644.44;1765289;81;21066;-72
2023/01/04 22:58:35;;;;;;;10.20;6.30;;;;;;;3.42;62.66;100635.68;1765116;81;21178;-72
2023/01/04 23:01:03;;;;;;;10.25;6.60;;;;;;;3.42;62.69;100623.31;1764399;81;21235;-72
2023/01/04 23:03:34;;;;;;;10.78;6.85;;;;;;;3.40;62.68;100612.14;1765198;81;21079;-71
2023/01/04 23:06:07;;;;;;;9.75;6.55;;;;;;;3.42;62.74;100604.00;1765122;81;21005;-71
2023/01/04 23:08:35;;;;;;;10.95;6.30;;;;;;;3.44;62.82;100603.29;1764531;81;21555;-70
2023/01/04 23:11:14;;;;;;;10.25;6.62;;;;;;;3.47;62.86;100594.95;1765254;81;21052;-70
2023/01/04 23:13:40;;;;;;;11.85;6.65;;;;;;;3.48;62.86;100592.09;1764919;80;21220;-70
2023/01/04 23:16:11;;;;;;;8.68;5.80;;;;;;;3.52;62.85;100588.52;1765339;80;21009;-70
2023/01/04 23:18:38;;;;;;;10.50;6.20;;;;;;;3.56;62.88;100579.70;1763745;81;21015;-71
2023/01/04 23:21:05;;;;;;;11.22;6.53;;;;;;;3.58;62.87;100571.03;1765273;81;21016;-71
2023/01/04 23:23:32;;;;;;;9.28;6.40;;;;;;;3.60;62.87;100559.76;1765035;81;21098;-71
2023/01/04 23:26:08;;;;;;;9.98;6.50;;;;;;;3.63;62.82;100551.41;1764956;81;22176;-71
2023/01/04 23:28:35;;;;;;;10.43;7.00;;;;;;;3.66;62.77;100533.31;1764755;81;21558;-71
2023/01/04 23:31:04;;;;;;;12.18;7.28;;;;;;;3.67;62.69;100529.64;1765087;81;21056;-71
2023/01/04 23:33:33;;;;;;;9.28;7.10;;;;;;;3.68;62.67;100525.97;1764918;81;20973;-71
2023/01/04 23:36:15;;;;;;;10.10;6.00;;;;;;;3.71;62.68;100524.22;1763813;81;21526;-71
2023/01/04 23:38:43;;;;;;;12.63;6.55;;;;;;;3.74;62.66;100525.13;1764827;80;21157;-70
2023/01/04 23:41:11;;;;;;;8.40;5.78;;;;;;;3.77;62.59;100539.74;1745692;81;21542;-70
2023/01/04 23:43:38;;;;;;;8.95;5.90;;;;;;;3.80;62.58;100535.36;1734603;82;21440;-71